Time;durP1;ratioP1;P1;durP2;ratioP2;P2;SDS_P1;SDS_P2;PMS_P1;PMS_P2;Temp;Humidity;BMP_temperature;BMP_pressure;BME280_temperature;BME280_humidity;BME280_pressure;Samples;Min_cycle;Max_cycle;Signal;HPM_P1;HPM_P2
2021/12/11 00:01:02;;;;;;;122.70;52.40;;;;;;;-4.07;80.14;99149.73;105326;1314;22732;-80
2021/12/11 00:03:38;;;;;;;122.10;50.80;;;;;;;-4.05;80.51;99151.42;105250;1315;26908;-80
2021/12/11 00:06:14;;;;;;;123.00;51.50;;;;;;;-4.04;80.40;99152.67;105344;1312;22615;-81
2021/12/11 00:08:44;;;;;;;129.90;50.90;;;;;;;-4.03;80.24;99161.23;105229;1312;22677;-81
2021/12/11 00:11:17;;;;;;;113.50;50.60;;;;;;;-4.08;79.98;99165.41;105281;1310;22717;-81
2021/12/11 00:13:46;;;;;;;117.30;50.70;;;;;;;-4.10;80.36;99170.42;105167;1312;22847;-81
2021/12/11 00:16:17;;;;;;;114.80;49.20;;;;;;;-4.13;80.31;99167.64;105240;1314;22755;-81
2021/12/11 00:18:51;;;;;;;118.60;52.20;;;;;;;-4.11;80.53;99168.17;105299;1318;22765;-80
2021/12/11 00:21:23;;;;;;;126.20;56.00;;;;;;;-4.09;80.56;99172.20;105322;1312;24016;-82
2021/12/11 00:23:58;;;;;;;133.20;54.70;;;;;;;-4.11;80.33;99168.55;105144;1312;22872;-80
2021/12/11 00:26:29;;;;;;;120.20;50.30;;;;;;;-4.09;80.49;99174.38;105264;1312;22731;-81
2021/12/11 00:28:59;;;;;;;130.00;51.30;;;;;;;-4.07;80.49;99179.41;105263;1312;22778;-80
2021/12/11 00:31:33;;;;;;;119.90;50.30;;;;;;;-4.08;80.19;99185.65;105289;1312;22583;-80
2021/12/11 00:34:03;;;;;;;120.20;50.60;;;;;;;-4.16;79.96;99187.15;105120;1316;25541;-81
2021/12/11 00:36:34;;;;;;;115.80;48.40;;;;;;;-4.20;80.06;99188.91;104814;1318;22536;-79
2021/12/11 00:39:10;;;;;;;112.40;49.20;;;;;;;-4.21;80.29;99188.37;105033;1312;25621;-81
2021/12/11 00:41:49;;;;;;;107.50;49.40;;;;;;;-4.19;80.52;99191.39;105208;1312;23134;-79
2021/12/11 00:44:18;;;;;;;112.40;50.30;;;;;;;-4.18;80.70;99198.60;105174;1312;22934;-80
2021/12/11 00:46:50;;;;;;;105.40;46.90;;;;;;;-4.15;80.65;99203.10;105266;1312;24244;-80
2021/12/11 00:49:21;;;;;;;101.60;45.10;;;;;;;-4.14;80.95;99204.25;105341;1312;22842;-80
2021/12/11 00:51:53;;;;;;;104.00;47.90;;;;;;;-4.11;81.01;99207.64;105194;1316;25477;-81
2021/12/11 00:54:22;;;;;;;102.40;45.60;;;;;;;-4.06;81.11;99208.54;105311;1312;23252;-80
2021/12/11 00:56:51;;;;;;;103.90;45.50;;;;;;;-4.03;81.28;99210.91;105195;1313;22678;-80
2021/12/11 00:59:21;;;;;;;99.50;44.60;;;;;;;-4.00;81.36;99209.00;105219;1315;23641;-80
2021/12/11 01:01:54;;;;;;;101.60;42.20;;;;;;;-3.98;81.37;99213.27;105423;1312;23350;-80
2021/12/11 01:04:27;;;;;;;97.10;41.20;;;;;;;-3.95;81.55;99215.02;105069;1315;22794;-81
2021/12/11 01:06:59;;;;;;;105.00;42.70;;;;;;;-3.91;81.50;99223.08;105097;1316;22663;-82
2021/12/11 01:09:32;;;;;;;98.30;42.80;;;;;;;-3.88;81.50;99224.75;105060;1312;23757;-81
2021/12/11 01:12:06;;;;;;;98.60;45.70;;;;;;;-3.85;81.59;99222.78;105288;1314;22944;-80
2021/12/11 01:14:50;;;;;;;114.30;49.30;;;;;;;-3.81;81.62;99224.84;105174;1312;22619;-80
2021/12/11 01:17:30;;;;;;;108.60;48.50;;;;;;;-3.78;81.68;99232.06;105200;1312;22650;-80
2021/12/11 01:20:04;;;;;;;146.50;57.70;;;;;;;-3.75;81.63;99233.42;105837;1312;22612;-80
2021/12/11 01:22:36;;;;;;;120.70;50.20;;;;;;;-3.74;81.89;99233.02;106310;1313;22818;-81
2021/12/11 01:25:09;;;;;;;100.40;44.50;;;;;;;-3.75;82.02;99239.57;106206;1313;22589;-80
2021/12/11 01:27:42;;;;;;;108.50;46.50;;;;;;;-3.74;82.30;99249.45;105473;1312;22684;-79
2021/12/11 01:30:15;;;;;;;106.00;44.70;;;;;;;-3.72;82.46;99254.04;105015;1312;22777;-79
2021/12/11 01:32:44;;;;;;;98.70;39.00;;;;;;;-3.70;82.54;99256.66;105172;1312;22823;-80
2021/12/11 01:35:16;;;;;;;90.80;39.60;;;;;;;-3.68;82.56;99262.16;105228;1317;25550;-80
2021/12/11 01:37:45;;;;;;;96.20;40.40;;;;;;;-3.67;82.66;99259.52;105293;1313;22650;-80
2021/12/11 01:40:18;;;;;;;96.00;39.00;;;;;;;-3.65;82.68;99260.81;105347;1315;22754;-80
2021/12/11 01:42:48;;;;;;;99.10;41.20;;;;;;;-3.64;82.67;99263.61;105205;1316;22730;-80
2021/12/11 01:45:18;;;;;;;89.00;38.50;;;;;;;-3.63;82.62;99266.95;105264;1312;23262;-79
2021/12/11 01:47:51;;;;;;;105.00;44.40;;;;;;;-3.61;82.65;99271.98;105050;1312;22799;-80
2021/12/11 01:50:24;;;;;;;123.50;48.00;;;;;;;-3.60;82.91;99267.92;105112;1312;25609;-81
2021/12/11 01:52:59;;;;;;;106.90;43.00;;;;;;;-3.59;82.99;99271.02;104899;1312;23052;-81
2021/12/11 01:55:33;;;;;;;102.20;42.10;;;;;;;-3.57;82.99;99271.86;105244;1313;24244;-81
2021/12/11 01:58:03;;;;;;;114.20;48.90;;;;;;;-3.54;83.07;99269.41;105062;1312;22724;-80
2021/12/11 02:00:37;;;;;;;120.30;49.30;;;;;;;-3.51;83.22;99275.29;105367;1312;26665;-80
2021/12/11 02:03:09;;;;;;;130.20;53.10;;;;;;;-3.48;83.19;99275.73;105319;1312;22706;-81
2021/12/11 02:05:40;;;;;;;115.60;51.20;;;;;;;-3.46;83.10;99281.95;105431;1315;22797;-80
2021/12/11 02:08:14;;;;;;;119.80;50.90;;;;;;;-3.45;82.99;99279.11;105197;1315;22809;-81
2021/12/11 02:10:47;;;;;;;121.60;48.30;;;;;;;-3.42;83.11;99283.60;105164;1312;22731;-80
2021/12/11 02:13:25;;;;;;;100.50;41.50;;;;;;;-3.41;82.98;99283.66;105316;1313;22881;-80
2021/12/11 02:15:54;;;;;;;96.10;40.20;;;;;;;-3.40;82.96;99285.54;105254;1319;22735;-81
2021/12/11 02:18:34;;;;;;;109.60;45.30;;;;;;;-3.39;83.01;99287.07;105306;1313;24338;-80
2021/12/11 02:21:10;;;;;;;107.10;41.50;;;;;;;-3.38;82.99;99295.55;105245;1312;22611;-81
2021/12/11 02:23:40;;;;;;;98.20;40.90;;;;;;;-3.37;82.95;99297.96;105375;1313;24012;-81
2021/12/11 02:26:12;;;;;;;91.40;42.80;;;;;;;-3.35;83.11;99298.64;105235;1312;22563;-80
2021/12/11 02:28:44;;;;;;;99.00;42.00;;;;;;;-3.33;83.04;99301.11;105363;1310;22687;-80
2021/12/11 02:31:17;;;;;;;92.40;39.50;;;;;;;-3.32;82.91;99302.59;105215;1313;22677;-80
2021/12/11 02:33:52;;;;;;;90.40;36.80;;;;;;;-3.30;82.84;99303.98;105268;1318;22881;-80
2021/12/11 02:36:25;;;;;;;85.70;37.40;;;;;;;-3.29;82.77;99304.19;104931;1314;22813;-80
2021/12/11 02:39:01;;;;;;;78.40;35.00;;;;;;;-3.27;82.72;99312.67;105347;1314;22673;-80
2021/12/11 02:41:38;;;;;;;86.00;35.60;;;;;;;-3.27;82.57;99310.63;105214;1314;24191;-80
2021/12/11 02:44:16;;;;;;;79.70;34.80;;;;;;;-3.24;82.66;99308.73;105418;1312;22547;-80
2021/12/11 02:46:54;;;;;;;78.10;31.90;;;;;;;-3.22;82.56;99309.40;105054;1313;22763;-80
2021/12/11 02:49:27;;;;;;;78.00;30.10;;;;;;;-3.24;82.53;99308.18;104985;1314;22929;-80
2021/12/11 02:52:01;;;;;;;70.90;31.50;;;;;;;-3.25;82.52;99314.83;105084;1315;24314;-80
2021/12/11 02:54:34;;;;;;;72.50;29.60;;;;;;;-3.25;82.28;99319.58;105335;1313;22623;-80
2021/12/11 02:57:07;;;;;;;70.40;31.00;;;;;;;-3.25;82.43;99323.25;105248;1312;22622;-80
2021/12/11 02:59:42;;;;;;;69.50;28.30;;;;;;;-3.26;82.37;99329.11;105248;1312;22659;-81
2021/12/11 03:02:17;;;;;;;61.00;27.20;;;;;;;-3.27;82.50;99326.84;105315;1314;22793;-80
2021/12/11 03:04:52;;;;;;;72.00;28.40;;;;;;;-3.28;82.58;99329.52;105259;1313;22677;-82
2021/12/11 03:07:35;;;;;;;67.70;26.90;;;;;;;-3.29;82.59;99332.17;105257;1312;22785;-80
2021/12/11 03:10:11;;;;;;;73.90;30.10;;;;;;;-3.32;82.60;99340.39;105253;1316;22734;-79
2021/12/11 03:12:41;;;;;;;70.40;27.80;;;;;;;-3.34;82.56;99344.95;105335;1318;22938;-80
2021/12/11 03:15:10;;;;;;;80.40;32.00;;;;;;;-3.34;82.49;99351.58;105344;1316;22641;-81
2021/12/11 03:17:39;;;;;;;62.80;27.80;;;;;;;-3.37;82.46;99354.71;105237;1314;22856;-80
2021/12/11 03:20:12;;;;;;;68.00;27.80;;;;;;;-3.35;82.57;99352.20;105207;1312;22681;-80
2021/12/11 03:22:43;;;;;;;66.30;28.40;;;;;;;-3.32;82.50;99355.21;105205;1312;24218;-81
2021/12/11 03:25:15;;;;;;;63.70;27.30;;;;;;;-3.31;82.39;99363.15;105246;1316;23197;-80
2021/12/11 03:27:43;;;;;;;78.00;28.10;;;;;;;-3.31;82.30;99370.64;105442;1315;22670;-80
2021/12/11 03:30:22;;;;;;;73.90;30.20;;;;;;;-3.32;82.28;99377.45;105293;1312;22699;-81
2021/12/11 03:32:53;;;;;;;72.10;28.90;;;;;;;-3.34;82.16;99385.02;105355;1312;22818;-80
2021/12/11 03:35:26;;;;;;;65.80;28.00;;;;;;;-3.35;82.18;99383.86;105083;1312;23681;-80
2021/12/11 03:37:56;;;;;;;69.80;29.30;;;;;;;-3.33;82.41;99382.05;105327;1312;22730;-81
2021/12/11 03:40:30;;;;;;;71.00;30.50;;;;;;;-3.31;82.43;99389.36;105239;1314;22643;-81
2021/12/11 03:43:02;;;;;;;74.10;31.70;;;;;;;-3.27;82.48;99396.89;105214;1318;22902;-81
2021/12/11 03:45:35;;;;;;;79.90;31.90;;;;;;;-3.26;82.51;99400.94;105244;1319;22609;-81
2021/12/11 03:48:07;;;;;;;75.60;30.30;;;;;;;-3.24;82.52;99406.36;105411;1312;22779;-81
2021/12/11 03:50:41;;;;;;;74.10;30.30;;;;;;;-3.22;82.51;99408.77;104994;1312;22664;-80
2021/12/11 03:53:11;;;;;;;72.60;30.70;;;;;;;-3.20;82.71;99414.67;104954;1313;24234;-80
2021/12/11 03:55:43;;;;;;;76.00;32.50;;;;;;;-3.19;82.86;99412.16;105172;1313;22696;-80
2021/12/11 03:58:13;;;;;;;76.60;32.10;;;;;;;-3.18;82.80;99414.25;104795;1316;25620;-80
2021/12/11 04:00:49;;;;;;;71.90;32.10;;;;;;;-3.17;82.84;99417.20;105238;1316;22716;-80
2021/12/11 04:03:20;;;;;;;73.40;30.70;;;;;;;-3.18;82.99;99423.60;105358;1314;22807;-81
2021/12/11 04:05:52;;;;;;;72.30;30.10;;;;;;;-3.18;83.03;99425.95;105258;1316;22974;-80
2021/12/11 04:08:24;;;;;;;75.90;32.60;;;;;;;-3.16;82.95;99426.16;105313;1314;22790;-81
2021/12/11 04:10:55;;;;;;;68.80;31.00;;;;;;;-3.15;83.18;99428.88;105396;1315;22755;-81
2021/12/11 04:13:25;;;;;;;76.20;32.50;;;;;;;-3.13;83.20;99432.83;105221;1312;23204;-81
2021/12/11 04:15:55;;;;;;;69.90;28.60;;;;;;;-3.10;83.12;99434.77;105319;1315;22671;-81
2021/12/11 04:18:24;;;;;;;75.80;30.10;;;;;;;-3.09;83.12;99435.91;105105;1318;23161;-80
2021/12/11 04:20:53;;;;;;;74.00;32.50;;;;;;;-3.05;83.18;99437.35;105248;1312;22617;-81
2021/12/11 04:23:24;;;;;;;69.60;29.20;;;;;;;-3.04;83.04;99440.15;105189;1313;23286;-81
2021/12/11 04:25:55;;;;;;;69.20;29.00;;;;;;;-3.02;82.99;99441.99;105253;1314;22763;-81
2021/12/11 04:28:25;;;;;;;71.70;30.70;;;;;;;-2.99;82.98;99446.40;104972;1316;23068;-81
2021/12/11 04:31:02;;;;;;;70.50;28.70;;;;;;;-2.96;83.03;99449.89;105042;1319;22832;-81
2021/12/11 04:33:33;;;;;;;75.80;30.90;;;;;;;-2.94;82.97;99453.39;105258;1316;22638;-80
2021/12/11 04:36:02;;;;;;;69.80;28.70;;;;;;;-2.94;82.93;99455.89;104683;1312;853881;-80
2021/12/11 04:38:30;;;;;;;76.60;30.60;;;;;;;-2.94;82.92;99462.42;105320;1305;79700;-55
2021/12/11 04:41:00;;;;;;;72.20;29.10;;;;;;;-2.93;82.98;99466.17;103061;1313;22953;-54
2021/12/11 04:43:29;;;;;;;67.40;29.30;;;;;;;-2.93;82.94;99473.66;103013;1310;24276;-52
2021/12/11 04:46:03;;;;;;;72.90;31.30;;;;;;;-2.95;82.96;99471.80;102950;1318;24455;-55
2021/12/11 04:48:40;;;;;;;75.10;31.20;;;;;;;-2.93;82.94;99479.04;103109;1316;22655;-54
2021/12/11 04:51:17;;;;;;;73.80;31.10;;;;;;;-2.91;82.89;99487.84;103052;1317;22649;-54
2021/12/11 04:53:58;;;;;;;78.10;34.20;;;;;;;-2.90;82.85;99490.80;103009;1313;25754;-53
2021/12/11 04:57:02;;;;;;;76.50;35.90;;;;;;;-2.90;82.97;99493.05;103038;1312;23072;-53
2021/12/11 04:59:51;;;;;;;79.30;34.40;;;;;;;-2.91;82.87;99493.98;103111;1315;22733;-53
2021/12/11 05:02:58;;;;;;;80.10;33.10;;;;;;;-2.92;82.72;99494.00;103042;1313;25691;-53
2021/12/11 05:05:44;;;;;;;71.70;32.80;;;;;;;-2.97;82.55;99492.42;103067;1316;22755;-53
2021/12/11 05:08:47;;;;;;;76.00;29.30;;;;;;;-3.06;82.74;99493.69;102954;1312;25706;-53
2021/12/11 05:11:15;;;;;;;66.20;28.40;;;;;;;-3.18;82.77;99497.61;102828;1317;24385;-54
2021/12/11 05:13:44;;;;;;;66.70;26.90;;;;;;;-3.23;82.76;99501.96;103079;1316;22572;-55
2021/12/11 05:16:15;;;;;;;64.20;27.40;;;;;;;-3.23;82.85;99502.91;103118;1317;22570;-55
2021/12/11 05:18:47;;;;;;;68.80;31.70;;;;;;;-3.23;82.94;99503.69;103044;1318;24342;-54
2021/12/11 05:21:18;;;;;;;75.70;29.80;;;;;;;-3.23;82.94;99501.81;103256;1316;23019;-56
2021/12/11 05:23:48;;;;;;;73.60;30.20;;;;;;;-3.21;83.09;99500.14;103169;1313;22804;-54
2021/12/11 05:26:18;;;;;;;74.60;32.60;;;;;;;-3.18;83.16;99509.09;103201;1316;22719;-53
2021/12/11 05:28:48;;;;;;;83.30;36.00;;;;;;;-3.17;83.21;99510.70;103492;1315;25338;-55
2021/12/11 05:31:17;;;;;;;83.60;34.50;;;;;;;-3.18;83.17;99515.09;103185;1317;24233;-55
2021/12/11 05:33:46;;;;;;;88.00;34.90;;;;;;;-3.17;83.37;99522.49;103112;1315;22811;-55
2021/12/11 05:36:17;;;;;;;75.20;33.70;;;;;;;-3.16;83.38;99523.96;103171;1312;22956;-53
2021/12/11 05:38:48;;;;;;;81.30;37.80;;;;;;;-3.14;83.48;99528.86;103006;1312;22861;-54
2021/12/11 05:41:20;;;;;;;77.30;34.60;;;;;;;-3.13;83.61;99531.83;103185;1315;24131;-56
2021/12/11 05:43:49;;;;;;;83.80;35.60;;;;;;;-3.11;83.60;99530.63;103267;1312;24234;-53
2021/12/11 05:46:18;;;;;;;79.70;35.90;;;;;;;-3.07;83.69;99534.58;103126;1316;24190;-56
2021/12/11 05:48:50;;;;;;;69.30;32.10;;;;;;;-3.04;83.74;99535.63;103205;1319;24834;-54
2021/12/11 05:51:21;;;;;;;76.70;34.50;;;;;;;-3.01;83.62;99535.69;103718;1316;25691;-54
2021/12/11 05:53:54;;;;;;;79.40;34.90;;;;;;;-3.00;83.56;99536.67;103189;1314;24516;-53
2021/12/11 05:56:22;;;;;;;84.60;34.60;;;;;;;-2.99;83.40;99540.50;103172;1312;22790;-56
2021/12/11 05:58:57;;;;;;;76.90;34.60;;;;;;;-3.00;83.18;99544.02;103037;1312;25596;-55
2021/12/11 06:01:30;;;;;;;79.10;35.10;;;;;;;-2.99;83.05;99546.35;103294;1319;23277;-55
2021/12/11 06:03:59;;;;;;;75.20;33.40;;;;;;;-2.99;82.85;99548.69;103212;1319;25497;-55
2021/12/11 06:06:28;;;;;;;78.50;35.50;;;;;;;-3.02;82.83;99553.40;103118;1312;22745;-53
2021/12/11 06:08:56;;;;;;;79.30;36.40;;;;;;;-3.04;82.74;99556.23;103189;1315;22663;-53
2021/12/11 06:11:25;;;;;;;77.80;32.70;;;;;;;-3.05;82.69;99557.25;103160;1312;25892;-54
2021/12/11 06:13:53;;;;;;;82.20;35.30;;;;;;;-3.10;82.30;99559.02;103105;1314;27030;-54
2021/12/11 06:16:21;;;;;;;74.00;32.40;;;;;;;-3.17;82.26;99560.79;103048;1314;22755;-53
2021/12/11 06:18:49;;;;;;;79.50;34.70;;;;;;;-3.18;82.43;99570.30;103001;1313;22719;-53
2021/12/11 06:21:18;;;;;;;81.00;33.60;;;;;;;-3.18;82.34;99574.60;103240;1314;22763;-54
2021/12/11 06:23:46;;;;;;;81.20;34.90;;;;;;;-3.21;82.16;99577.13;103103;1314;26673;-53
2021/12/11 06:26:14;;;;;;;83.40;35.00;;;;;;;-3.24;82.08;99580.75;102947;1315;24325;-53
2021/12/11 06:28:42;;;;;;;82.80;34.90;;;;;;;-3.30;81.85;99578.37;103015;1316;25525;-53
2021/12/11 06:31:18;;;;;;;75.20;33.10;;;;;;;-3.33;81.90;99586.48;102999;1316;23176;-55
2021/12/11 06:33:48;;;;;;;69.90;31.20;;;;;;;-3.34;82.28;99592.36;103051;1317;26472;-56
2021/12/11 06:36:17;;;;;;;;;;;;;;;-3.33;82.21;99597.51;103123;1312;22732;-56
2021/12/11 06:38:49;;;;;;;76.80;31.70;;;;;;;-3.36;81.89;99598.92;103171;1312;26725;-56
2021/12/11 06:41:21;;;;;;;80.60;34.30;;;;;;;-3.43;81.85;99600.30;103058;1315;22833;-54
2021/12/11 06:43:50;;;;;;;81.70;34.70;;;;;;;-3.54;81.67;99598.19;103058;1312;22821;-56
2021/12/11 06:46:18;;;;;;;72.80;29.80;;;;;;;-3.61;81.52;99597.77;102974;1312;22813;-57
2021/12/11 06:48:47;;;;;;;72.00;32.10;;;;;;;-3.67;81.56;99608.72;103347;1315;22750;-55
2021/12/11 06:51:15;;;;;;;74.00;31.80;;;;;;;-3.72;81.81;99607.73;103181;1313;22711;-55
2021/12/11 06:53:46;;;;;;;69.20;29.80;;;;;;;-3.75;82.04;99615.86;103198;1315;22614;-57
2021/12/11 06:56:17;;;;;;;65.80;28.60;;;;;;;-3.84;82.08;99623.61;103293;1316;22767;-55
2021/12/11 06:58:46;;;;;;;66.60;29.50;;;;;;;-3.86;82.03;99627.05;103108;1313;24249;-57
2021/12/11 07:01:15;;;;;;;64.00;27.10;;;;;;;-3.91;81.72;99628.87;103244;1312;22952;-56
2021/12/11 07:03:44;;;;;;;90.60;36.80;;;;;;;-3.97;81.39;99628.36;103044;1317;22600;-54
2021/12/11 07:06:15;;;;;;;87.90;36.80;;;;;;;-4.07;81.36;99632.91;103175;1312;25679;-55
2021/12/11 07:08:44;;;;;;;89.90;40.40;;;;;;;-4.09;81.76;99635.33;103077;1312;22759;-58
2021/12/11 07:11:13;;;;;;;94.10;40.70;;;;;;;-4.03;82.11;99647.39;103087;1309;24313;-57
2021/12/11 07:13:42;;;;;;;86.90;41.20;;;;;;;-4.01;81.98;99660.92;103058;1312;24337;-55
2021/12/11 07:16:11;;;;;;;99.40;45.70;;;;;;;-3.97;82.18;99668.63;103168;1316;25899;-57
2021/12/11 07:18:39;;;;;;;118.60;51.70;;;;;;;-3.93;82.02;99674.91;103320;1315;24382;-54
2021/12/11 07:21:08;;;;;;;105.60;51.90;;;;;;;-3.92;81.77;99673.82;102998;1314;22714;-56
2021/12/11 07:23:41;;;;;;;99.30;46.80;;;;;;;-3.94;81.60;99678.13;103121;1313;22881;-57
2021/12/11 07:26:16;;;;;;;93.10;44.50;;;;;;;-3.95;81.63;99681.08;103210;1315;26077;-55
2021/12/11 07:28:48;;;;;;;92.40;43.90;;;;;;;-3.95;81.87;99684.43;103503;1312;24631;-59
2021/12/11 07:31:21;;;;;;;93.80;41.70;;;;;;;-3.93;81.65;99692.67;103305;1316;25565;-58
2021/12/11 07:33:54;;;;;;;95.90;38.80;;;;;;;-3.93;81.64;99704.14;103280;1312;22754;-58
2021/12/11 07:36:26;;;;;;;112.00;47.40;;;;;;;-3.97;81.65;99710.77;103268;1315;24007;-56
2021/12/11 07:38:56;;;;;;;116.60;51.50;;;;;;;-4.00;81.77;99712.11;103092;1312;25528;-59
2021/12/11 07:41:24;;;;;;;111.40;50.60;;;;;;;-4.06;81.79;99710.48;103268;1315;22641;-55
2021/12/11 07:43:53;;;;;;;118.50;54.70;;;;;;;-4.09;82.03;99709.55;102974;1314;22730;-59
2021/12/11 07:46:24;;;;;;;121.30;52.20;;;;;;;-4.04;82.28;99718.82;103136;1311;25672;-56
2021/12/11 07:48:53;;;;;;;112.70;51.40;;;;;;;-4.00;82.47;99723.48;102926;1317;22724;-54
2021/12/11 07:51:26;;;;;;;115.60;46.70;;;;;;;-3.99;82.35;99727.84;102912;1318;25605;-60
2021/12/11 07:53:54;;;;;;;113.30;50.60;;;;;;;-3.97;82.50;99729.55;103118;1316;24677;-59
2021/12/11 07:56:23;;;;;;;115.50;48.80;;;;;;;-3.95;82.76;99733.83;102979;1316;22874;-58
2021/12/11 07:58:54;;;;;;;97.50;45.00;;;;;;;-3.94;82.77;99738.96;103070;1309;22633;-58
2021/12/11 08:01:23;;;;;;;97.60;41.50;;;;;;;-3.96;82.81;99744.42;103192;1316;22896;-59
2021/12/11 08:03:52;;;;;;;100.30;44.80;;;;;;;-3.95;82.89;99747.92;102998;1319;24234;-59
2021/12/11 08:06:20;;;;;;;86.30;38.80;;;;;;;-3.90;83.07;99752.97;103017;1314;25518;-54
2021/12/11 08:08:50;;;;;;;90.80;37.50;;;;;;;-3.90;82.92;99753.44;102907;1312;24574;-58
2021/12/11 08:11:19;;;;;;;83.20;38.50;;;;;;;-3.87;82.95;99760.36;103114;1310;24313;-57
2021/12/11 08:13:50;;;;;;;92.70;41.20;;;;;;;-3.81;83.30;99764.70;102950;1312;22706;-54
2021/12/11 08:16:24;;;;;;;86.60;38.00;;;;;;;-3.78;83.30;99764.08;102855;1315;25576;-56
2021/12/11 08:18:53;;;;;;;94.30;40.80;;;;;;;-3.72;83.47;99770.61;102910;1318;23762;-58
2021/12/11 08:21:24;;;;;;;96.50;42.40;;;;;;;-3.64;83.73;99774.95;102952;1315;26993;-64
2021/12/11 08:23:55;;;;;;;94.90;37.60;;;;;;;-3.57;83.77;99779.05;103179;1315;22725;-55
2021/12/11 08:26:25;;;;;;;86.90;38.80;;;;;;;-3.51;83.87;99782.67;102887;1318;25637;-58
2021/12/11 08:28:55;;;;;;;96.40;40.40;;;;;;;-3.49;83.66;99787.91;103277;1315;22571;-56
2021/12/11 08:31:24;;;;;;;93.00;40.20;;;;;;;-3.45;83.65;99792.80;103128;1316;24266;-54
2021/12/11 08:33:54;;;;;;;85.80;39.10;;;;;;;-3.39;83.82;99800.19;103186;1317;22688;-56
2021/12/11 08:36:24;;;;;;;100.40;41.90;;;;;;;-3.33;83.98;99805.31;106612;1319;22690;-58
2021/12/11 08:38:52;;;;;;;99.50;40.60;;;;;;;-3.27;83.97;99807.25;104608;1316;22920;-59
2021/12/11 08:41:25;;;;;;;93.70;42.90;;;;;;;-3.19;84.24;99809.22;103303;1312;25628;-58
2021/12/11 08:43:58;;;;;;;98.90;43.10;;;;;;;-3.11;84.32;99813.25;103042;1317;26033;-58
2021/12/11 08:46:28;;;;;;;107.80;49.30;;;;;;;-3.01;84.57;99816.94;103069;1315;22722;-58
2021/12/11 08:49:00;;;;;;;99.80;46.00;;;;;;;-2.92;84.61;99817.84;103248;1319;22606;-56
2021/12/11 08:51:33;;;;;;;103.50;50.10;;;;;;;-2.85;84.55;99825.44;103645;1312;22989;-57
2021/12/11 08:54:03;;;;;;;102.90;49.10;;;;;;;-2.76;84.52;99832.25;103205;1315;22730;-57
2021/12/11 08:56:31;;;;;;;101.40;47.40;;;;;;;-2.69;84.57;99838.69;103248;1315;23123;-57
2021/12/11 08:59:00;;;;;;;112.90;50.40;;;;;;;-2.66;84.41;99845.23;103096;1317;24258;-56
2021/12/11 09:01:34;;;;;;;103.80;49.00;;;;;;;-2.60;84.73;99853.23;103140;1315;22723;-57
2021/12/11 09:04:07;;;;;;;96.80;44.40;;;;;;;-2.53;84.79;99857.18;103737;1319;22867;-57
2021/12/11 09:06:41;;;;;;;100.00;46.50;;;;;;;-2.49;84.73;99863.16;103123;1319;22780;-55
2021/12/11 09:09:12;;;;;;;109.30;50.60;;;;;;;-2.41;84.99;99866.63;103157;1315;24700;-57
2021/12/11 09:11:45;;;;;;;112.80;49.40;;;;;;;-2.34;85.16;99870.09;103186;1316;22749;-55
2021/12/11 09:14:21;;;;;;;104.30;49.50;;;;;;;-2.26;85.10;99876.27;103177;1316;22635;-58
2021/12/11 09:17:00;;;;;;;101.70;46.50;;;;;;;-2.21;84.84;99883.58;103313;1315;25656;-57
2021/12/11 09:19:34;;;;;;;108.30;49.10;;;;;;;-2.20;84.67;99884.98;103248;1313;27562;-57
2021/12/11 09:22:13;;;;;;;109.50;51.90;;;;;;;-2.19;84.67;99888.19;103080;1315;25594;-57
2021/12/11 09:24:48;;;;;;;116.20;51.10;;;;;;;-2.13;84.85;99885.34;102971;1318;22861;-56
2021/12/11 09:27:24;;;;;;;111.00;51.10;;;;;;;-2.07;85.16;99892.70;103218;1315;24302;-57
2021/12/11 09:29:57;;;;;;;102.40;50.50;;;;;;;-2.01;85.27;99890.16;103075;1315;24410;-55
2021/12/11 09:32:35;;;;;;;114.40;52.60;;;;;;;-1.94;85.39;99890.19;103148;1316;26822;-56
2021/12/11 09:35:11;;;;;;;114.30;53.30;;;;;;;-1.86;85.52;99889.80;103191;1315;23322;-57
2021/12/11 09:37:40;;;;;;;116.60;52.00;;;;;;;-1.76;85.58;99901.59;103157;1316;24266;-56
2021/12/11 09:40:22;;;;;;;118.50;54.90;;;;;;;-1.68;85.45;99903.80;103184;1316;22681;-56
2021/12/11 09:42:48;;;;;;;111.40;55.00;;;;;;;-1.62;85.23;99905.77;103710;1318;22754;-58
2021/12/11 09:45:20;;;;;;;114.90;55.00;;;;;;;-1.59;85.17;99905.98;102973;1317;23413;-57
2021/12/11 09:47:54;;;;;;;121.00;55.80;;;;;;;-1.56;85.10;99912.52;103020;1316;22808;-58
2021/12/11 09:50:26;;;;;;;115.70;55.90;;;;;;;-1.53;85.12;99912.96;102988;1312;23125;-58
2021/12/11 09:52:56;;;;;;;113.70;58.10;;;;;;;-1.49;85.28;99920.20;104861;1315;23417;-56
2021/12/11 09:55:33;;;;;;;109.40;53.90;;;;;;;-1.43;85.44;99925.00;103125;1314;25918;-57
2021/12/11 09:58:05;;;;;;;121.50;54.40;;;;;;;-1.34;85.91;99932.02;103552;1319;22741;-57
2021/12/11 10:00:36;;;;;;;116.90;57.40;;;;;;;-1.25;85.83;99935.69;104055;1316;23330;-57
2021/12/11 10:03:05;;;;;;;123.00;61.60;;;;;;;-1.18;85.81;99943.89;102998;1316;24238;-56
2021/12/11 10:05:39;;;;;;;131.20;63.20;;;;;;;-1.12;85.68;99944.40;103257;1316;22770;-58
2021/12/11 10:08:27;;;;;;;159.40;73.80;;;;;;;-1.08;85.63;99952.88;102978;1315;25598;-56
2021/12/11 10:11:05;;;;;;;143.10;71.80;;;;;;;-1.03;85.60;99957.92;102968;1316;22588;-57
2021/12/11 10:13:35;;;;;;;116.60;55.30;;;;;;;-1.02;85.57;99966.91;103039;1315;24298;-55
2021/12/11 10:16:06;;;;;;;110.10;53.50;;;;;;;-1.02;85.47;99973.34;103109;1315;25717;-57
2021/12/11 10:18:34;;;;;;;118.20;53.80;;;;;;;-1.03;85.64;99974.98;103069;1312;24266;-54
2021/12/11 10:21:09;;;;;;;111.50;53.50;;;;;;;-1.02;85.89;99979.36;103110;1312;24454;-56
2021/12/11 10:23:40;;;;;;;115.50;54.90;;;;;;;-0.97;86.03;99982.35;103037;1313;22604;-57
2021/12/11 10:26:12;;;;;;;114.90;54.60;;;;;;;-0.93;86.21;99986.15;103024;1312;22652;-58
2021/12/11 10:28:44;;;;;;;124.20;60.70;;;;;;;-0.90;86.16;99988.16;103155;1316;24881;-53
2021/12/11 10:31:18;;;;;;;133.90;64.50;;;;;;;-0.86;86.32;99994.21;103160;1315;22762;-57
2021/12/11 10:33:46;;;;;;;131.10;64.60;;;;;;;-0.78;86.32;99993.35;103054;1316;22570;-57
2021/12/11 10:36:19;;;;;;;133.10;63.40;;;;;;;-0.70;86.45;99997.34;103052;1315;25553;-58
2021/12/11 10:38:48;;;;;;;142.10;66.90;;;;;;;-0.65;86.24;99997.43;103484;1310;26982;-58
2021/12/11 10:41:17;;;;;;;129.40;63.40;;;;;;;-0.61;86.21;99999.10;102967;1312;22584;-55
2021/12/11 10:43:54;;;;;;;138.60;67.60;;;;;;;-0.58;85.95;100002.84;105252;1298;22585;-58
2021/12/11 10:46:29;;;;;;;129.00;62.30;;;;;;;-0.56;85.94;100002.25;103328;1316;23312;-60
2021/12/11 10:48:57;;;;;;;118.10;55.20;;;;;;;-0.55;85.70;100002.95;103280;1315;22600;-57
2021/12/11 10:51:31;;;;;;;123.60;58.40;;;;;;;-0.55;85.75;100004.98;103508;1316;22613;-60
2021/12/11 10:54:01;;;;;;;123.50;60.10;;;;;;;-0.54;85.74;100007.95;103312;1315;24228;-60
2021/12/11 10:56:29;;;;;;;124.20;59.30;;;;;;;-0.50;85.93;100009.32;105668;1317;22548;-60
2021/12/11 10:59:01;;;;;;;119.10;59.60;;;;;;;-0.49;85.85;100010.63;103473;1310;22758;-60
2021/12/11 11:01:34;;;;;;;125.70;59.40;;;;;;;-0.45;85.85;100007.05;103293;1316;25364;-60
2021/12/11 11:04:09;;;;;;;122.10;62.30;;;;;;;-0.40;86.05;100012.48;103381;1317;22600;-58
2021/12/11 11:06:40;;;;;;;123.20;58.10;;;;;;;-0.36;86.20;100012.73;103185;1317;24326;-58
2021/12/11 11:09:10;;;;;;;118.00;58.60;;;;;;;-0.32;86.05;100012.15;103322;1312;25203;-59
2021/12/11 11:11:40;;;;;;;122.10;59.40;;;;;;;-0.30;85.91;100013.85;103393;1317;24410;-59
2021/12/11 11:14:10;;;;;;;121.70;60.20;;;;;;;-0.29;85.82;100021.77;103195;1315;24925;-60
2021/12/11 11:16:42;;;;;;;124.90;61.50;;;;;;;-0.28;85.87;100020.64;103284;1315;23027;-59
2021/12/11 11:19:10;;;;;;;130.00;60.60;;;;;;;-0.25;85.97;100020.83;103387;1309;25387;-60
2021/12/11 11:21:42;;;;;;;121.50;59.90;;;;;;;-0.21;85.99;100025.80;103215;1317;24367;-59
2021/12/11 11:24:13;;;;;;;124.30;59.90;;;;;;;-0.17;85.91;100028.89;103065;1315;24215;-59
2021/12/11 11:26:44;;;;;;;123.50;58.80;;;;;;;-0.15;85.81;100034.20;103120;1319;22661;-60